sensor_id;sensor_type;location;lat;lon;timestamp;temperature;humidity
34406;DHT22;20658;45.630;8.886;2022-09-09T00:00:57;21.50;86.10
34406;DHT22;20658;45.630;8.886;2022-09-09T00:03:40;21.40;86.50
34406;DHT22;20658;45.630;8.886;2022-09-09T00:06:23;21.40;86.70
34406;DHT22;20658;45.630;8.886;2022-09-09T00:09:02;21.30;86.80
34406;DHT22;20658;45.630;8.886;2022-09-09T00:11:41;21.30;86.60
34406;DHT22;20658;45.630;8.886;2022-09-09T00:14:25;21.30;86.20
34406;DHT22;20658;45.630;8.886;2022-09-09T00:17:06;21.30;87.10
34406;DHT22;20658;45.630;8.886;2022-09-09T00:19:46;21.20;87.10
34406;DHT22;20658;45.630;8.886;2022-09-09T00:22:22;21.20;87.20
34406;DHT22;20658;45.630;8.886;2022-09-09T00:25:02;21.30;86.80
34406;DHT22;20658;45.630;8.886;2022-09-09T00:27:46;21.20;86.50
34406;DHT22;20658;45.630;8.886;2022-09-09T00:30:24;21.20;87.20
34406;DHT22;20658;45.630;8.886;2022-09-09T00:33:00;21.10;87.50
34406;DHT22;20658;45.630;8.886;2022-09-09T00:35:37;21.10;87.60
34406;DHT22;20658;45.630;8.886;2022-09-09T00:38:15;21.10;88.00
34406;DHT22;20658;45.630;8.886;2022-09-09T00:40:52;21.10;88.30
34406;DHT22;20658;45.630;8.886;2022-09-09T00:43:29;21.00;88.80
34406;DHT22;20658;45.630;8.886;2022-09-09T00:46:34;21.00;88.70
34406;DHT22;20658;45.630;8.886;2022-09-09T00:49:23;21.00;89.70
34406;DHT22;20658;45.630;8.886;2022-09-09T00:52:12;20.90;89.80
34406;DHT22;20658;45.630;8.886;2022-09-09T00:54:58;20.90;90.10
34406;DHT22;20658;45.630;8.886;2022-09-09T00:57:38;20.90;90.20
34406;DHT22;20658;45.630;8.886;2022-09-09T01:00:23;20.80;90.50
34406;DHT22;20658;45.630;8.886;2022-09-09T01:03:10;20.80;90.60
34406;DHT22;20658;45.630;8.886;2022-09-09T01:06:02;20.80;91.00
34406;DHT22;20658;45.630;8.886;2022-09-09T01:09:13;20.80;91.40
34406;DHT22;20658;45.630;8.886;2022-09-09T01:11:55;20.80;91.80
34406;DHT22;20658;45.630;8.886;2022-09-09T01:14:40;20.70;92.10
34406;DHT22;20658;45.630;8.886;2022-09-09T01:17:20;20.80;92.00
34406;DHT22;20658;45.630;8.886;2022-09-09T01:20:12;20.80;92.20
34406;DHT22;20658;45.630;8.886;2022-09-09T01:23:07;20.80;92.60
34406;DHT22;20658;45.630;8.886;2022-09-09T01:26:26;20.80;92.70
34406;DHT22;20658;45.630;8.886;2022-09-09T01:29:08;20.80;93.40
34406;DHT22;20658;45.630;8.886;2022-09-09T01:31:53;20.80;93.40
34406;DHT22;20658;45.630;8.886;2022-09-09T01:34:31;20.80;93.40
34406;DHT22;20658;45.630;8.886;2022-09-09T01:37:10;20.80;93.40
34406;DHT22;20658;45.630;8.886;2022-09-09T01:39:44;20.80;93.00
34406;DHT22;20658;45.630;8.886;2022-09-09T01:42:19;20.80;93.30
34406;DHT22;20658;45.630;8.886;2022-09-09T01:44:52;20.90;93.50
34406;DHT22;20658;45.630;8.886;2022-09-09T01:47:27;20.90;93.50
34406;DHT22;20658;45.630;8.886;2022-09-09T01:50:08;20.90;94.00
34406;DHT22;20658;45.630;8.886;2022-09-09T01:52:45;20.90;94.10
34406;DHT22;20658;45.630;8.886;2022-09-09T01:55:29;20.90;94.00
34406;DHT22;20658;45.630;8.886;2022-09-09T01:58:17;20.90;94.10
34406;DHT22;20658;45.630;8.886;2022-09-09T02:01:02;20.90;93.90
34406;DHT22;20658;45.630;8.886;2022-09-09T02:03:43;20.90;93.90
34406;DHT22;20658;45.630;8.886;2022-09-09T02:06:27;20.90;94.10
34406;DHT22;20658;45.630;8.886;2022-09-09T02:09:19;21.00;93.90
34406;DHT22;20658;45.630;8.886;2022-09-09T02:12:03;21.00;93.60
34406;DHT22;20658;45.630;8.886;2022-09-09T02:14:52;21.00;93.50
34406;DHT22;20658;45.630;8.886;2022-09-09T02:17:41;20.90;93.90
34406;DHT22;20658;45.630;8.886;2022-09-09T02:20:16;21.00;93.80
34406;DHT22;20658;45.630;8.886;2022-09-09T02:22:56;21.00;93.70
34406;DHT22;20658;45.630;8.886;2022-09-09T02:25:29;21.00;93.50
34406;DHT22;20658;45.630;8.886;2022-09-09T02:28:11;21.00;93.50
34406;DHT22;20658;45.630;8.886;2022-09-09T02:30:50;21.10;93.90
34406;DHT22;20658;45.630;8.886;2022-09-09T02:33:28;21.10;94.00
34406;DHT22;20658;45.630;8.886;2022-09-09T02:36:08;21.10;94.40
34406;DHT22;20658;45.630;8.886;2022-09-09T02:38:46;21.00;94.80
34406;DHT22;20658;45.630;8.886;2022-09-09T02:41:19;21.00;95.30
34406;DHT22;20658;45.630;8.886;2022-09-09T02:43:49;20.90;96.40
34406;DHT22;20658;45.630;8.886;2022-09-09T02:46:36;20.90;97.40
34406;DHT22;20658;45.630;8.886;2022-09-09T02:49:18;20.80;98.20
34406;DHT22;20658;45.630;8.886;2022-09-09T02:52:00;20.80;98.60
34406;DHT22;20658;45.630;8.886;2022-09-09T02:54:38;20.70;99.10
34406;DHT22;20658;45.630;8.886;2022-09-09T02:57:17;20.70;99.30
34406;DHT22;20658;45.630;8.886;2022-09-09T02:59:49;20.70;98.90
34406;DHT22;20658;45.630;8.886;2022-09-09T03:02:20;20.70;98.80
34406;DHT22;20658;45.630;8.886;2022-09-09T03:04:53;20.70;98.80
34406;DHT22;20658;45.630;8.886;2022-09-09T03:07:22;20.70;98.90
34406;DHT22;20658;45.630;8.886;2022-09-09T03:09:51;20.70;98.70
34406;DHT22;20658;45.630;8.886;2022-09-09T03:12:24;20.80;99.00
34406;DHT22;20658;45.630;8.886;2022-09-09T03:14:57;20.80;99.30
34406;DHT22;20658;45.630;8.886;2022-09-09T03:17:28;20.90;99.20
34406;DHT22;20658;45.630;8.886;2022-09-09T03:19:57;20.90;99.30
34406;DHT22;20658;45.630;8.886;2022-09-09T03:22:25;20.90;99.00
34406;DHT22;20658;45.630;8.886;2022-09-09T03:25:00;20.90;99.00
34406;DHT22;20658;45.630;8.886;2022-09-09T03:27:30;20.90;98.80
34406;DHT22;20658;45.630;8.886;2022-09-09T03:29:58;20.90;98.90
34406;DHT22;20658;45.630;8.886;2022-09-09T03:32:31;21.00;98.80
34406;DHT22;20658;45.630;8.886;2022-09-09T03:35:00;21.00;99.90
34406;DHT22;20658;45.630;8.886;2022-09-09T03:37:28;21.00;99.90
34406;DHT22;20658;45.630;8.886;2022-09-09T03:39:57;21.00;99.90
34406;DHT22;20658;45.630;8.886;2022-09-09T03:42:26;20.90;99.90
34406;DHT22;20658;45.630;8.886;2022-09-09T03:44:56;20.90;99.90
34406;DHT22;20658;45.630;8.886;2022-09-09T03:47:33;20.90;99.90
34406;DHT22;20658;45.630;8.886;2022-09-09T03:50:05;20.90;99.90
34406;DHT22;20658;45.630;8.886;2022-09-09T03:52:44;20.90;99.90
34406;DHT22;20658;45.630;8.886;2022-09-09T03:55:21;20.90;99.90
34406;DHT22;20658;45.630;8.886;2022-09-09T03:57:50;20.90;99.90
34406;DHT22;20658;45.630;8.886;2022-09-09T04:00:23;20.90;99.90
34406;DHT22;20658;45.630;8.886;2022-09-09T04:02:54;20.80;99.90
34406;DHT22;20658;45.630;8.886;2022-09-09T04:05:29;20.60;99.90
34406;DHT22;20658;45.630;8.886;2022-09-09T04:07:58;20.60;99.90
34406;DHT22;20658;45.630;8.886;2022-09-09T04:10:31;20.50;99.90
34406;DHT22;20658;45.630;8.886;2022-09-09T04:13:00;20.50;99.90
34406;DHT22;20658;45.630;8.886;2022-09-09T04:15:33;20.50;99.90
34406;DHT22;20658;45.630;8.886;2022-09-09T04:18:03;20.40;99.90
34406;DHT22;20658;45.630;8.886;2022-09-09T04:20:37;20.40;99.90
34406;DHT22;20658;45.630;8.886;2022-09-09T04:23:11;20.40;99.90
34406;DHT22;20658;45.630;8.886;2022-09-09T04:25:45;20.40;99.90
34406;DHT22;20658;45.630;8.886;2022-09-09T04:28:21;20.40;99.90
34406;DHT22;20658;45.630;8.886;2022-09-09T04:30:56;20.40;99.90
34406;DHT22;20658;45.630;8.886;2022-09-09T04:33:31;20.30;99.90
34406;DHT22;20658;45.630;8.886;2022-09-09T04:36:05;20.30;99.90
34406;DHT22;20658;45.630;8.886;2022-09-09T04:38:33;20.30;99.90
34406;DHT22;20658;45.630;8.886;2022-09-09T04:41:07;20.30;99.90
34406;DHT22;20658;45.630;8.886;2022-09-09T04:43:44;20.30;99.90
34406;DHT22;20658;45.630;8.886;2022-09-09T04:46:17;20.30;99.90
34406;DHT22;20658;45.630;8.886;2022-09-09T04:48:52;20.30;99.90
34406;DHT22;20658;45.630;8.886;2022-09-09T04:51:30;20.20;99.80
34406;DHT22;20658;45.630;8.886;2022-09-09T04:54:03;20.10;99.40
34406;DHT22;20658;45.630;8.886;2022-09-09T04:56:32;20.00;99.50
34406;DHT22;20658;45.630;8.886;2022-09-09T04:59:01;20.00;99.80
34406;DHT22;20658;45.630;8.886;2022-09-09T05:01:56;19.90;99.90
34406;DHT22;20658;45.630;8.886;2022-09-09T05:04:31;19.90;99.90
34406;DHT22;20658;45.630;8.886;2022-09-09T05:06:59;19.80;99.70
34406;DHT22;20658;45.630;8.886;2022-09-09T05:09:28;19.80;99.90
34406;DHT22;20658;45.630;8.886;2022-09-09T05:12:02;19.70;99.90
34406;DHT22;20658;45.630;8.886;2022-09-09T05:14:34;19.70;99.90
34406;DHT22;20658;45.630;8.886;2022-09-09T05:17:10;19.60;99.20
34406;DHT22;20658;45.630;8.886;2022-09-09T05:19:46;19.60;99.40
34406;DHT22;20658;45.630;8.886;2022-09-09T05:22:20;19.60;99.60
34406;DHT22;20658;45.630;8.886;2022-09-09T05:24:51;19.50;99.20
34406;DHT22;20658;45.630;8.886;2022-09-09T05:27:19;19.50;99.20
34406;DHT22;20658;45.630;8.886;2022-09-09T05:29:53;19.40;98.80
34406;DHT22;20658;45.630;8.886;2022-09-09T05:32:29;19.40;98.30
34406;DHT22;20658;45.630;8.886;2022-09-09T05:35:07;19.20;97.50
34406;DHT22;20658;45.630;8.886;2022-09-09T05:37:40;19.20;97.30
34406;DHT22;20658;45.630;8.886;2022-09-09T05:40:13;19.20;96.90
34406;DHT22;20658;45.630;8.886;2022-09-09T05:42:48;19.20;96.90
34406;DHT22;20658;45.630;8.886;2022-09-09T05:45:16;19.20;96.60
34406;DHT22;20658;45.630;8.886;2022-09-09T05:47:52;19.10;96.70
34406;DHT22;20658;45.630;8.886;2022-09-09T05:50:23;19.00;96.90
34406;DHT22;20658;45.630;8.886;2022-09-09T05:52:57;19.00;96.90
34406;DHT22;20658;45.630;8.886;2022-09-09T05:55:31;19.00;96.90
34406;DHT22;20658;45.630;8.886;2022-09-09T05:58:04;19.00;96.70
34406;DHT22;20658;45.630;8.886;2022-09-09T06:00:37;19.10;96.70
34406;DHT22;20658;45.630;8.886;2022-09-09T06:03:06;19.10;96.50
34406;DHT22;20658;45.630;8.886;2022-09-09T06:05:40;19.20;96.40
34406;DHT22;20658;45.630;8.886;2022-09-09T06:08:09;19.20;96.40
34406;DHT22;20658;45.630;8.886;2022-09-09T06:10:38;19.40;95.50
34406;DHT22;20658;45.630;8.886;2022-09-09T06:13:11;19.40;94.80
34406;DHT22;20658;45.630;8.886;2022-09-09T06:15:49;19.40;94.50
34406;DHT22;20658;45.630;8.886;2022-09-09T06:18:24;19.30;94.40
34406;DHT22;20658;45.630;8.886;2022-09-09T06:21:00;19.30;94.30
34406;DHT22;20658;45.630;8.886;2022-09-09T06:23:36;19.30;94.20
34406;DHT22;20658;45.630;8.886;2022-09-09T06:26:11;19.20;93.60
34406;DHT22;20658;45.630;8.886;2022-09-09T06:28:47;19.30;93.80
34406;DHT22;20658;45.630;8.886;2022-09-09T06:31:23;19.20;93.50
34406;DHT22;20658;45.630;8.886;2022-09-09T06:34:01;19.30;93.40
34406;DHT22;20658;45.630;8.886;2022-09-09T06:36:39;19.50;93.60
34406;DHT22;20658;45.630;8.886;2022-09-09T06:39:12;19.30;93.10
34406;DHT22;20658;45.630;8.886;2022-09-09T06:41:42;19.30;93.20
34406;DHT22;20658;45.630;8.886;2022-09-09T06:44:42;19.50;93.40
34406;DHT22;20658;45.630;8.886;2022-09-09T06:47:16;19.60;92.00
34406;DHT22;20658;45.630;8.886;2022-09-09T06:49:45;19.70;91.40
34406;DHT22;20658;45.630;8.886;2022-09-09T06:52:15;19.80;90.90
34406;DHT22;20658;45.630;8.886;2022-09-09T06:54:50;19.90;90.60
34406;DHT22;20658;45.630;8.886;2022-09-09T06:57:23;19.90;90.00
34406;DHT22;20658;45.630;8.886;2022-09-09T06:59:52;19.80;89.40
34406;DHT22;20658;45.630;8.886;2022-09-09T07:02:25;19.90;89.60
34406;DHT22;20658;45.630;8.886;2022-09-09T07:04:59;20.00;88.30
34406;DHT22;20658;45.630;8.886;2022-09-09T07:07:35;20.40;87.90
34406;DHT22;20658;45.630;8.886;2022-09-09T07:10:11;20.70;86.30
34406;DHT22;20658;45.630;8.886;2022-09-09T07:12:45;21.00;84.90
34406;DHT22;20658;45.630;8.886;2022-09-09T07:15:24;21.20;82.70
34406;DHT22;20658;45.630;8.886;2022-09-09T07:18:01;21.30;82.30
34406;DHT22;20658;45.630;8.886;2022-09-09T07:20:34;21.20;81.10
34406;DHT22;20658;45.630;8.886;2022-09-09T07:23:09;21.30;80.00
34406;DHT22;20658;45.630;8.886;2022-09-09T07:25:44;21.40;79.60
34406;DHT22;20658;45.630;8.886;2022-09-09T07:28:19;21.30;78.50
34406;DHT22;20658;45.630;8.886;2022-09-09T07:30:54;21.50;78.00
34406;DHT22;20658;45.630;8.886;2022-09-09T07:33:29;21.30;77.30
34406;DHT22;20658;45.630;8.886;2022-09-09T07:36:05;21.40;77.90
34406;DHT22;20658;45.630;8.886;2022-09-09T07:38:41;21.40;78.20
34406;DHT22;20658;45.630;8.886;2022-09-09T07:41:19;21.70;77.60
34406;DHT22;20658;45.630;8.886;2022-09-09T07:43:51;21.90;76.90
34406;DHT22;20658;45.630;8.886;2022-09-09T07:46:26;22.00;75.20
34406;DHT22;20658;45.630;8.886;2022-09-09T07:48:56;22.10;74.90
34406;DHT22;20658;45.630;8.886;2022-09-09T07:51:35;22.20;74.60
34406;DHT22;20658;45.630;8.886;2022-09-09T07:54:07;22.40;72.60
34406;DHT22;20658;45.630;8.886;2022-09-09T07:56:44;22.30;72.10
34406;DHT22;20658;45.630;8.886;2022-09-09T07:59:18;22.40;71.40
34406;DHT22;20658;45.630;8.886;2022-09-09T08:01:53;22.70;71.90
34406;DHT22;20658;45.630;8.886;2022-09-09T08:04:29;22.70;70.30
34406;DHT22;20658;45.630;8.886;2022-09-09T08:07:03;22.70;70.80
34406;DHT22;20658;45.630;8.886;2022-09-09T08:09:45;22.70;70.70
34406;DHT22;20658;45.630;8.886;2022-09-09T08:12:23;22.60;70.90
34406;DHT22;20658;45.630;8.886;2022-09-09T08:14:57;22.60;70.50
34406;DHT22;20658;45.630;8.886;2022-09-09T08:17:32;22.70;70.30
34406;DHT22;20658;45.630;8.886;2022-09-09T08:20:08;22.80;69.30
34406;DHT22;20658;45.630;8.886;2022-09-09T08:22:42;22.90;69.00
34406;DHT22;20658;45.630;8.886;2022-09-09T08:25:17;23.10;67.80
34406;DHT22;20658;45.630;8.886;2022-09-09T08:27:53;23.20;66.40
34406;DHT22;20658;45.630;8.886;2022-09-09T08:30:26;23.50;66.90
34406;DHT22;20658;45.630;8.886;2022-09-09T08:32:59;23.60;65.40
34406;DHT22;20658;45.630;8.886;2022-09-09T08:35:28;23.40;66.10
34406;DHT22;20658;45.630;8.886;2022-09-09T08:38:04;23.30;67.20
34406;DHT22;20658;45.630;8.886;2022-09-09T08:40:44;23.40;66.20
34406;DHT22;20658;45.630;8.886;2022-09-09T08:43:18;23.60;65.50
34406;DHT22;20658;45.630;8.886;2022-09-09T08:46:00;23.70;65.50
34406;DHT22;20658;45.630;8.886;2022-09-09T08:48:45;24.00;64.30
34406;DHT22;20658;45.630;8.886;2022-09-09T08:51:26;24.00;64.70
34406;DHT22;20658;45.630;8.886;2022-09-09T08:54:02;23.90;64.40
34406;DHT22;20658;45.630;8.886;2022-09-09T08:56:37;24.10;64.00
34406;DHT22;20658;45.630;8.886;2022-09-09T08:59:16;24.00;64.10
34406;DHT22;20658;45.630;8.886;2022-09-09T09:01:59;24.10;64.00
34406;DHT22;20658;45.630;8.886;2022-09-09T09:04:45;24.40;66.90
34406;DHT22;20658;45.630;8.886;2022-09-09T09:07:45;24.80;66.00
34406;DHT22;20658;45.630;8.886;2022-09-09T09:10:39;24.80;63.60
34406;DHT22;20658;45.630;8.886;2022-09-09T09:13:22;24.80;64.40
34406;DHT22;20658;45.630;8.886;2022-09-09T09:16:01;24.60;65.90
34406;DHT22;20658;45.630;8.886;2022-09-09T09:18:39;24.80;66.70
34406;DHT22;20658;45.630;8.886;2022-09-09T09:21:12;25.50;64.20
34406;DHT22;20658;45.630;8.886;2022-09-09T09:23:55;26.10;62.60
34406;DHT22;20658;45.630;8.886;2022-09-09T09:26:34;26.60;60.20
34406;DHT22;20658;45.630;8.886;2022-09-09T09:29:12;26.80;59.30
34406;DHT22;20658;45.630;8.886;2022-09-09T09:31:50;26.90;59.30
34406;DHT22;20658;45.630;8.886;2022-09-09T09:34:27;27.20;58.80
34406;DHT22;20658;45.630;8.886;2022-09-09T09:37:01;27.70;57.10
34406;DHT22;20658;45.630;8.886;2022-09-09T09:39:35;27.90;55.90
34406;DHT22;20658;45.630;8.886;2022-09-09T09:42:09;28.30;55.00
34406;DHT22;20658;45.630;8.886;2022-09-09T09:44:48;28.20;54.90
34406;DHT22;20658;45.630;8.886;2022-09-09T09:47:22;27.40;55.60
34406;DHT22;20658;45.630;8.886;2022-09-09T09:50:17;27.40;55.30
34406;DHT22;20658;45.630;8.886;2022-09-09T09:52:57;27.60;55.10
34406;DHT22;20658;45.630;8.886;2022-09-09T09:55:30;27.70;54.10
34406;DHT22;20658;45.630;8.886;2022-09-09T09:58:06;27.80;54.90
34406;DHT22;20658;45.630;8.886;2022-09-09T10:00:49;27.90;54.40
34406;DHT22;20658;45.630;8.886;2022-09-09T10:03:27;27.80;54.60
34406;DHT22;20658;45.630;8.886;2022-09-09T10:05:58;28.00;54.60
34406;DHT22;20658;45.630;8.886;2022-09-09T10:08:34;28.30;53.80
34406;DHT22;20658;45.630;8.886;2022-09-09T10:11:23;28.10;53.80
34406;DHT22;20658;45.630;8.886;2022-09-09T10:14:05;28.30;53.20
34406;DHT22;20658;45.630;8.886;2022-09-09T10:17:02;27.70;53.90
34406;DHT22;20658;45.630;8.886;2022-09-09T10:19:53;27.40;56.00
34406;DHT22;20658;45.630;8.886;2022-09-09T10:22:33;27.20;56.30
34406;DHT22;20658;45.630;8.886;2022-09-09T10:25:30;26.90;56.80
34406;DHT22;20658;45.630;8.886;2022-09-09T10:28:27;26.80;58.00
34406;DHT22;20658;45.630;8.886;2022-09-09T10:31:15;26.90;57.60
34406;DHT22;20658;45.630;8.886;2022-09-09T10:34:01;27.00;57.40
34406;DHT22;20658;45.630;8.886;2022-09-09T10:36:43;27.20;57.30
34406;DHT22;20658;45.630;8.886;2022-09-09T10:39:32;27.20;56.60
34406;DHT22;20658;45.630;8.886;2022-09-09T10:42:09;27.30;55.90
34406;DHT22;20658;45.630;8.886;2022-09-09T10:44:56;27.90;54.40
34406;DHT22;20658;45.630;8.886;2022-09-09T10:47:49;28.40;53.80
34406;DHT22;20658;45.630;8.886;2022-09-09T10:50:42;28.30;52.90
34406;DHT22;20658;45.630;8.886;2022-09-09T10:53:28;28.10;54.30
34406;DHT22;20658;45.630;8.886;2022-09-09T10:56:12;27.90;54.00
34406;DHT22;20658;45.630;8.886;2022-09-09T10:58:47;28.20;54.50
34406;DHT22;20658;45.630;8.886;2022-09-09T11:01:21;28.90;53.10
34406;DHT22;20658;45.630;8.886;2022-09-09T11:04:00;29.40;52.60
34406;DHT22;20658;45.630;8.886;2022-09-09T11:06:43;29.60;50.90
34406;DHT22;20658;45.630;8.886;2022-09-09T11:09:22;30.10;50.60
34406;DHT22;20658;45.630;8.886;2022-09-09T11:11:57;30.10;49.20
34406;DHT22;20658;45.630;8.886;2022-09-09T11:14:36;30.00;49.30
34406;DHT22;20658;45.630;8.886;2022-09-09T11:17:11;30.00;49.00
34406;DHT22;20658;45.630;8.886;2022-09-09T11:19:47;29.60;49.30
34406;DHT22;20658;45.630;8.886;2022-09-09T11:22:20;29.70;49.00
34406;DHT22;20658;45.630;8.886;2022-09-09T11:24:59;29.90;48.20
34406;DHT22;20658;45.630;8.886;2022-09-09T11:27:33;30.10;47.90
34406;DHT22;20658;45.630;8.886;2022-09-09T11:30:18;29.90;48.30
34406;DHT22;20658;45.630;8.886;2022-09-09T11:33:10;29.50;49.40
34406;DHT22;20658;45.630;8.886;2022-09-09T11:36:10;29.00;50.00
34406;DHT22;20658;45.630;8.886;2022-09-09T11:38:54;28.80;49.70
34406;DHT22;20658;45.630;8.886;2022-09-09T11:41:34;29.00;49.60
34406;DHT22;20658;45.630;8.886;2022-09-09T11:44:11;29.70;47.50
34406;DHT22;20658;45.630;8.886;2022-09-09T11:46:40;30.10;46.80
34406;DHT22;20658;45.630;8.886;2022-09-09T11:49:27;30.30;45.80
34406;DHT22;20658;45.630;8.886;2022-09-09T11:51:58;30.10;45.20
34406;DHT22;20658;45.630;8.886;2022-09-09T11:54:30;30.50;44.80
34406;DHT22;20658;45.630;8.886;2022-09-09T11:57:23;31.00;44.10
34406;DHT22;20658;45.630;8.886;2022-09-09T11:59:54;31.10;43.00
34406;DHT22;20658;45.630;8.886;2022-09-09T12:02:24;31.50;42.40
34406;DHT22;20658;45.630;8.886;2022-09-09T12:04:57;31.50;42.00
34406;DHT22;20658;45.630;8.886;2022-09-09T12:07:36;31.00;42.70
34406;DHT22;20658;45.630;8.886;2022-09-09T12:10:22;31.00;41.70
34406;DHT22;20658;45.630;8.886;2022-09-09T12:12:53;31.20;41.70
34406;DHT22;20658;45.630;8.886;2022-09-09T12:15:27;30.70;42.00
34406;DHT22;20658;45.630;8.886;2022-09-09T12:18:00;30.90;42.10
34406;DHT22;20658;45.630;8.886;2022-09-09T12:20:36;31.00;41.80
34406;DHT22;20658;45.630;8.886;2022-09-09T12:23:25;31.20;41.10
34406;DHT22;20658;45.630;8.886;2022-09-09T12:26:20;30.70;42.10
34406;DHT22;20658;45.630;8.886;2022-09-09T12:28:59;30.60;42.10
34406;DHT22;20658;45.630;8.886;2022-09-09T12:31:43;30.00;42.10
34406;DHT22;20658;45.630;8.886;2022-09-09T12:34:17;30.10;42.20
34406;DHT22;20658;45.630;8.886;2022-09-09T12:36:57;30.80;41.60
34406;DHT22;20658;45.630;8.886;2022-09-09T12:39:34;31.40;41.20
34406;DHT22;20658;45.630;8.886;2022-09-09T12:42:16;31.90;39.90
34406;DHT22;20658;45.630;8.886;2022-09-09T12:44:55;31.00;40.40
34406;DHT22;20658;45.630;8.886;2022-09-09T12:47:36;30.60;41.20
34406;DHT22;20658;45.630;8.886;2022-09-09T12:50:17;30.50;41.50
34406;DHT22;20658;45.630;8.886;2022-09-09T12:52:55;30.30;41.40
34406;DHT22;20658;45.630;8.886;2022-09-09T12:55:34;30.00;41.60
34406;DHT22;20658;45.630;8.886;2022-09-09T12:58:13;30.10;42.00
34406;DHT22;20658;45.630;8.886;2022-09-09T13:00:50;30.60;40.60
34406;DHT22;20658;45.630;8.886;2022-09-09T13:03:25;31.10;40.50
34406;DHT22;20658;45.630;8.886;2022-09-09T13:06:10;30.90;39.20
34406;DHT22;20658;45.630;8.886;2022-09-09T13:08:44;31.00;39.90
34406;DHT22;20658;45.630;8.886;2022-09-09T13:11:20;31.20;39.40
34406;DHT22;20658;45.630;8.886;2022-09-09T13:13:57;31.50;39.00
34406;DHT22;20658;45.630;8.886;2022-09-09T13:16:32;31.10;39.40
34406;DHT22;20658;45.630;8.886;2022-09-09T13:19:08;31.30;39.80
34406;DHT22;20658;45.630;8.886;2022-09-09T13:21:43;31.40;39.80
34406;DHT22;20658;45.630;8.886;2022-09-09T13:24:27;31.30;39.20
34406;DHT22;20658;45.630;8.886;2022-09-09T13:27:03;31.40;39.00
34406;DHT22;20658;45.630;8.886;2022-09-09T13:29:39;31.40;39.20
34406;DHT22;20658;45.630;8.886;2022-09-09T13:32:17;31.40;38.70
34406;DHT22;20658;45.630;8.886;2022-09-09T13:34:51;31.30;38.90
34406;DHT22;20658;45.630;8.886;2022-09-09T13:37:31;31.20;39.10
34406;DHT22;20658;45.630;8.886;2022-09-09T13:40:17;31.10;39.90
34406;DHT22;20658;45.630;8.886;2022-09-09T13:42:56;31.30;39.70
34406;DHT22;20658;45.630;8.886;2022-09-09T13:45:31;31.70;39.00
34406;DHT22;20658;45.630;8.886;2022-09-09T13:48:10;31.50;38.90
34406;DHT22;20658;45.630;8.886;2022-09-09T13:50:54;30.90;39.40
34406;DHT22;20658;45.630;8.886;2022-09-09T13:53:31;30.80;39.20
34406;DHT22;20658;45.630;8.886;2022-09-09T13:56:05;30.60;40.10
34406;DHT22;20658;45.630;8.886;2022-09-09T13:58:38;30.80;39.00
34406;DHT22;20658;45.630;8.886;2022-09-09T14:01:13;30.10;39.60
34406;DHT22;20658;45.630;8.886;2022-09-09T14:03:47;29.70;40.50
34406;DHT22;20658;45.630;8.886;2022-09-09T14:06:20;30.20;40.20
34406;DHT22;20658;45.630;8.886;2022-09-09T14:08:54;30.60;39.90
34406;DHT22;20658;45.630;8.886;2022-09-09T14:11:28;30.40;39.90
34406;DHT22;20658;45.630;8.886;2022-09-09T14:14:01;29.90;39.50
34406;DHT22;20658;45.630;8.886;2022-09-09T14:16:36;30.20;40.50
34406;DHT22;20658;45.630;8.886;2022-09-09T14:19:09;30.60;40.00
34406;DHT22;20658;45.630;8.886;2022-09-09T14:21:42;30.70;39.60
34406;DHT22;20658;45.630;8.886;2022-09-09T14:24:16;30.80;39.60
34406;DHT22;20658;45.630;8.886;2022-09-09T14:26:49;30.80;38.90
34406;DHT22;20658;45.630;8.886;2022-09-09T14:29:22;30.20;39.50
34406;DHT22;20658;45.630;8.886;2022-09-09T14:31:58;30.10;40.20
34406;DHT22;20658;45.630;8.886;2022-09-09T14:34:32;30.20;39.90
34406;DHT22;20658;45.630;8.886;2022-09-09T14:37:06;30.60;39.70
34406;DHT22;20658;45.630;8.886;2022-09-09T14:39:40;30.70;38.60
34406;DHT22;20658;45.630;8.886;2022-09-09T14:42:15;30.20;39.50
34406;DHT22;20658;45.630;8.886;2022-09-09T14:44:48;30.10;39.80
34406;DHT22;20658;45.630;8.886;2022-09-09T14:47:23;30.50;39.70
34406;DHT22;20658;45.630;8.886;2022-09-09T14:49:57;30.70;39.00
34406;DHT22;20658;45.630;8.886;2022-09-09T14:52:32;31.00;38.90
34406;DHT22;20658;45.630;8.886;2022-09-09T14:55:07;31.10;38.70
34406;DHT22;20658;45.630;8.886;2022-09-09T14:57:41;31.00;37.80
34406;DHT22;20658;45.630;8.886;2022-09-09T15:00:14;30.10;38.10
34406;DHT22;20658;45.630;8.886;2022-09-09T15:02:52;29.80;38.10
34406;DHT22;20658;45.630;8.886;2022-09-09T15:05:25;29.80;37.60
34406;DHT22;20658;45.630;8.886;2022-09-09T15:07:59;29.80;37.50
34406;DHT22;20658;45.630;8.886;2022-09-09T15:10:33;29.80;37.40
34406;DHT22;20658;45.630;8.886;2022-09-09T15:13:06;29.90;37.60
34406;DHT22;20658;45.630;8.886;2022-09-09T15:15:39;29.80;38.10
34406;DHT22;20658;45.630;8.886;2022-09-09T15:18:15;29.90;38.70
34406;DHT22;20658;45.630;8.886;2022-09-09T15:20:44;30.00;39.20
34406;DHT22;20658;45.630;8.886;2022-09-09T15:23:18;29.90;38.50
34406;DHT22;20658;45.630;8.886;2022-09-09T15:25:51;30.10;39.20
34406;DHT22;20658;45.630;8.886;2022-09-09T15:28:26;30.20;38.40
34406;DHT22;20658;45.630;8.886;2022-09-09T15:31:05;30.50;38.40
34406;DHT22;20658;45.630;8.886;2022-09-09T15:33:41;30.60;38.30
34406;DHT22;20658;45.630;8.886;2022-09-09T15:36:16;30.50;38.10
34406;DHT22;20658;45.630;8.886;2022-09-09T15:38:51;30.50;38.00
34406;DHT22;20658;45.630;8.886;2022-09-09T15:41:25;30.50;38.50
34406;DHT22;20658;45.630;8.886;2022-09-09T15:44:00;30.50;38.40
34406;DHT22;20658;45.630;8.886;2022-09-09T15:46:35;30.50;38.40
34406;DHT22;20658;45.630;8.886;2022-09-09T15:49:13;30.50;38.40
34406;DHT22;20658;45.630;8.886;2022-09-09T15:51:51;30.30;37.90
34406;DHT22;20658;45.630;8.886;2022-09-09T15:54:25;30.10;38.40
34406;DHT22;20658;45.630;8.886;2022-09-09T15:56:55;30.00;38.40
34406;DHT22;20658;45.630;8.886;2022-09-09T15:59:27;30.10;38.40
34406;DHT22;20658;45.630;8.886;2022-09-09T16:02:02;30.10;38.40
34406;DHT22;20658;45.630;8.886;2022-09-09T16:04:38;30.30;38.40
34406;DHT22;20658;45.630;8.886;2022-09-09T16:07:11;30.40;38.50
34406;DHT22;20658;45.630;8.886;2022-09-09T16:09:45;30.50;38.00
34406;DHT22;20658;45.630;8.886;2022-09-09T16:12:18;30.50;37.90
34406;DHT22;20658;45.630;8.886;2022-09-09T16:14:51;30.50;37.80
34406;DHT22;20658;45.630;8.886;2022-09-09T16:17:25;30.60;37.40
34406;DHT22;20658;45.630;8.886;2022-09-09T16:20:01;30.70;37.30
34406;DHT22;20658;45.630;8.886;2022-09-09T16:22:34;30.60;36.90
34406;DHT22;20658;45.630;8.886;2022-09-09T16:25:08;30.50;37.50
34406;DHT22;20658;45.630;8.886;2022-09-09T16:27:41;30.50;37.80
34406;DHT22;20658;45.630;8.886;2022-09-09T16:30:15;30.30;37.10
34406;DHT22;20658;45.630;8.886;2022-09-09T16:32:48;30.20;37.70